Time;durP1;ratioP1;P1;durP2;ratioP2;P2;SDS_P1;SDS_P2;PMS_P1;PMS_P2;Temp;Humidity;BMP_temperature;BMP_pressure;BME280_temperature;BME280_humidity;BME280_pressure;Samples;Min_cycle;Max_cycle;Signal;HPM_P1;HPM_P2
2022/07/05 00:01:01;;;;;;;2.37;1.23;;;18.40;99.90;;;;;;5049866;28;20421;-70
2022/07/05 00:03:27;;;;;;;3.80;1.45;;;18.30;99.90;;;;;;5032432;28;20420;-70
2022/07/05 00:05:54;;;;;;;2.05;1.20;;;18.30;99.90;;;;;;5031445;28;20511;-70
2022/07/05 00:08:20;;;;;;;2.13;1.27;;;18.40;99.90;;;;;;5029892;28;20416;-70
2022/07/05 00:10:46;;;;;;;3.37;1.30;;;18.30;99.90;;;;;;5029370;28;20537;-69
2022/07/05 00:13:11;;;;;;;3.28;1.45;;;18.30;99.90;;;;;;5028241;28;20382;-69
2022/07/05 00:15:37;;;;;;;3.00;1.10;;;18.30;99.90;;;;;;5030651;28;20903;-70
2022/07/05 00:18:04;;;;;;;4.45;1.40;;;18.20;99.90;;;;;;5029040;28;20396;-69
2022/07/05 00:20:29;;;;;;;3.45;1.25;;;18.20;99.90;;;;;;5029475;28;20736;-69
2022/07/05 00:22:55;;;;;;;3.58;1.50;;;18.20;99.90;;;;;;5048591;28;20381;-70
2022/07/05 00:25:20;;;;;;;5.90;1.50;;;18.10;99.90;;;;;;5032588;28;20393;-70
2022/07/05 00:27:46;;;;;;;4.47;1.47;;;18.10;99.90;;;;;;5033449;28;20677;-70
2022/07/05 00:30:13;;;;;;;2.90;1.20;;;18.20;99.90;;;;;;5035012;28;20420;-69
2022/07/05 00:32:38;;;;;;;2.45;1.10;;;18.20;99.90;;;;;;5032732;28;20429;-70
2022/07/05 00:35:05;;;;;;;2.47;1.33;;;18.20;99.90;;;;;;5033845;28;20425;-70
2022/07/05 00:37:31;;;;;;;5.97;1.48;;;18.20;99.90;;;;;;5067142;28;20401;-70
2022/07/05 00:39:56;;;;;;;2.88;1.35;;;18.10;99.90;;;;;;5032988;28;20424;-69
2022/07/05 00:42:22;;;;;;;1.97;1.10;;;18.10;99.90;;;;;;5032753;28;20500;-70
2022/07/05 00:44:48;;;;;;;3.95;1.50;;;18.10;99.90;;;;;;5032958;28;20740;-70
2022/07/05 00:47:13;;;;;;;3.47;1.40;;;18.00;99.90;;;;;;5033943;28;20420;-69
2022/07/05 00:49:41;;;;;;;2.63;1.30;;;17.90;99.90;;;;;;5035288;28;20451;-70
2022/07/05 00:52:07;;;;;;;3.58;1.33;;;17.80;99.90;;;;;;5035053;28;20473;-70
2022/07/05 00:54:36;;;;;;;6.67;1.70;;;17.90;99.90;;;;;;5033347;28;20528;-70
2022/07/05 00:57:03;;;;;;;4.30;1.43;;;17.80;99.90;;;;;;5034367;28;20389;-70
2022/07/05 00:59:29;;;;;;;3.35;1.30;;;17.70;99.90;;;;;;5033193;28;20514;-70
2022/07/05 01:01:56;;;;;;;3.08;1.48;;;17.70;99.90;;;;;;5051164;28;20436;-68
2022/07/05 01:04:21;;;;;;;3.80;1.37;;;17.70;99.90;;;;;;5033488;28;20439;-68
2022/07/05 01:06:49;;;;;;;5.57;1.80;;;17.60;99.90;;;;;;5043616;28;20461;-69
2022/07/05 01:09:16;;;;;;;2.42;1.40;;;17.70;99.90;;;;;;5053959;28;20404;-68
2022/07/05 01:11:46;;;;;;;3.05;1.70;;;17.60;99.90;;;;;;5035814;28;20428;-68
2022/07/05 01:14:22;;;;;;;7.60;1.90;;;17.50;99.90;;;;;;5052747;28;20389;-68
2022/07/05 01:16:53;;;;;;;5.13;1.37;;;17.50;99.90;;;;;;5037680;28;20385;-68
2022/07/05 01:19:20;;;;;;;4.60;1.52;;;17.50;99.90;;;;;;5037881;28;20413;-69
2022/07/05 01:21:48;;;;;;;5.75;1.67;;;17.50;99.90;;;;;;5056464;28;20415;-68
2022/07/05 01:24:16;;;;;;;4.55;1.80;;;17.50;99.90;;;;;;5038823;28;20622;-68
2022/07/05 01:26:46;;;;;;;3.50;1.57;;;17.50;99.90;;;;;;5038361;28;20378;-69
2022/07/05 01:29:11;;;;;;;3.15;1.60;;;17.40;99.90;;;;;;5038333;28;20430;-69
2022/07/05 01:31:38;;;;;;;3.70;1.63;;;17.30;99.90;;;;;;5037512;28;20484;-68
2022/07/05 01:34:04;;;;;;;3.47;1.60;;;17.30;99.90;;;;;;5036673;28;20393;-68
2022/07/05 01:36:31;;;;;;;3.42;1.48;;;17.40;99.90;;;;;;5034241;28;20393;-69
2022/07/05 01:38:57;;;;;;;2.87;1.53;;;17.40;99.90;;;;;;5032137;28;20453;-69
2022/07/05 01:41:23;;;;;;;3.97;1.80;;;17.40;99.90;;;;;;5064680;28;20450;-69
2022/07/05 01:43:48;;;;;;;2.72;1.25;;;17.30;99.90;;;;;;5064869;28;20387;-69
2022/07/05 01:46:19;;;;;;;2.85;1.67;;;17.30;99.90;;;;;;5032408;28;20453;-69
2022/07/05 01:48:44;;;;;;;3.88;1.60;;;17.30;99.90;;;;;;5065748;28;20410;-69
2022/07/05 01:51:20;;;;;;;4.13;1.60;;;17.20;99.90;;;;;;5066499;28;20691;-69
2022/07/05 01:53:49;;;;;;;3.28;1.52;;;17.30;99.90;;;;;;5064915;28;20461;-68
2022/07/05 01:56:15;;;;;;;5.25;1.65;;;17.20;99.90;;;;;;5064248;28;20395;-69
2022/07/05 01:58:42;;;;;;;3.60;1.70;;;17.10;99.90;;;;;;5064207;28;21017;-69
2022/07/05 02:01:07;;;;;;;4.75;1.65;;;17.00;99.90;;;;;;5030665;28;20686;-68
2022/07/05 02:03:33;;;;;;;5.07;1.85;;;17.00;99.90;;;;;;5065312;28;20399;-69
2022/07/05 02:05:59;;;;;;;3.80;1.80;;;17.00;99.90;;;;;;5064068;28;20391;-68
2022/07/05 02:08:29;;;;;;;3.93;2.07;;;17.00;99.90;;;;;;5064159;28;20651;-68
2022/07/05 02:10:55;;;;;;;7.38;1.95;;;16.90;99.90;;;;;;5064932;28;20682;-68
2022/07/05 02:13:21;;;;;;;3.97;1.80;;;16.80;99.90;;;;;;5031104;28;20390;-68
2022/07/05 02:15:47;;;;;;;4.93;2.05;;;16.60;99.90;;;;;;5064861;28;20391;-69
2022/07/05 02:18:12;;;;;;;4.07;1.85;;;16.60;99.90;;;;;;5033211;28;20407;-68
2022/07/05 02:20:39;;;;;;;4.97;1.70;;;16.50;99.90;;;;;;5063837;28;20466;-67
2022/07/05 02:23:05;;;;;;;3.00;1.70;;;16.50;99.90;;;;;;5030115;28;20721;-68
2022/07/05 02:25:30;;;;;;;4.60;2.00;;;16.60;99.90;;;;;;5061323;28;20827;-68
2022/07/05 02:27:57;;;;;;;3.37;1.70;;;16.60;99.90;;;;;;5026846;28;20457;-68
2022/07/05 02:30:22;;;;;;;3.25;1.85;;;16.70;99.90;;;;;;5061300;28;20398;-69
2022/07/05 02:32:48;;;;;;;4.00;1.60;;;16.70;99.90;;;;;;5061034;28;20403;-69
2022/07/05 02:35:13;;;;;;;3.92;1.60;;;16.60;99.90;;;;;;5030135;28;20668;-69
2022/07/05 02:37:39;;;;;;;3.97;1.70;;;16.60;99.90;;;;;;5066118;28;20467;-68
2022/07/05 02:40:10;;;;;;;4.07;1.90;;;16.60;99.90;;;;;;5064419;28;20482;-68
2022/07/05 02:42:35;;;;;;;4.50;2.03;;;16.50;99.90;;;;;;5061663;28;20494;-68
2022/07/05 02:45:03;;;;;;;5.57;1.73;;;16.40;99.90;;;;;;5062408;28;20482;-69
2022/07/05 02:47:32;;;;;;;3.17;1.70;;;16.30;99.90;;;;;;5063219;28;20406;-68
2022/07/05 02:50:02;;;;;;;3.15;2.10;;;16.40;99.90;;;;;;5063694;28;20391;-69
2022/07/05 02:52:28;;;;;;;3.10;1.75;;;16.40;99.90;;;;;;5064090;28;20418;-69
2022/07/05 02:54:53;;;;;;;4.03;2.10;;;16.30;99.90;;;;;;5065163;28;20445;-69
2022/07/05 02:57:19;;;;;;;5.10;2.30;;;16.30;99.90;;;;;;5032234;28;20469;-69
2022/07/05 02:59:44;;;;;;;6.20;2.27;;;16.30;99.90;;;;;;5030597;28;20387;-69
2022/07/05 03:02:10;;;;;;;5.90;2.57;;;16.30;99.90;;;;;;5063416;28;20484;-69
2022/07/05 03:04:35;;;;;;;4.35;2.13;;;16.30;99.90;;;;;;5030589;28;20691;-69
2022/07/05 03:07:01;;;;;;;4.67;2.40;;;16.20;99.90;;;;;;5061492;28;20379;-69
2022/07/05 03:09:26;;;;;;;3.97;2.42;;;16.10;99.90;;;;;;5027136;28;20678;-68
2022/07/05 03:11:52;;;;;;;4.27;2.20;;;16.10;99.90;;;;;;5060432;28;20391;-68
2022/07/05 03:14:17;;;;;;;5.05;2.22;;;16.00;99.90;;;;;;5061741;28;20426;-69
2022/07/05 03:16:44;;;;;;;6.63;2.47;;;16.10;99.90;;;;;;5028344;28;20387;-69
2022/07/05 03:19:10;;;;;;;6.45;2.33;;;16.10;99.90;;;;;;5028162;28;20393;-68
2022/07/05 03:21:35;;;;;;;3.90;2.22;;;16.10;99.90;;;;;;5061939;28;20407;-69
2022/07/05 03:24:01;;;;;;;4.53;2.50;;;16.10;99.90;;;;;;5061864;28;20611;-68
2022/07/05 03:26:26;;;;;;;4.30;2.43;;;16.00;99.90;;;;;;5061593;28;20393;-68
2022/07/05 03:28:52;;;;;;;4.60;2.20;;;15.90;99.90;;;;;;5030657;28;20394;-68
2022/07/05 03:31:17;;;;;;;4.40;2.40;;;15.90;99.90;;;;;;5064467;28;20545;-68
2022/07/05 03:33:43;;;;;;;4.70;2.20;;;16.00;99.90;;;;;;5063691;28;20921;-68
2022/07/05 03:36:09;;;;;;;5.50;2.27;;;16.10;99.90;;;;;;5063967;28;20399;-68
2022/07/05 03:38:36;;;;;;;4.80;2.40;;;16.10;99.90;;;;;;5064064;28;20410;-68
2022/07/05 03:41:02;;;;;;;5.07;2.28;;;16.20;99.90;;;;;;5031606;28;20453;-68
2022/07/05 03:43:28;;;;;;;6.17;2.40;;;16.10;99.90;;;;;;5030804;28;20513;-69
2022/07/05 03:45:54;;;;;;;4.97;2.37;;;16.20;99.90;;;;;;5065933;28;20612;-69
2022/07/05 03:48:20;;;;;;;7.80;2.80;;;16.10;99.90;;;;;;5034040;28;20391;-69
2022/07/05 03:50:46;;;;;;;4.47;2.77;;;16.00;99.90;;;;;;5064222;28;20423;-69
2022/07/05 03:53:11;;;;;;;6.77;2.50;;;16.10;99.90;;;;;;5029343;28;20601;-69
2022/07/05 03:55:36;;;;;;;4.43;2.50;;;16.20;99.90;;;;;;5062641;28;20405;-69
2022/07/05 03:58:02;;;;;;;4.90;2.50;;;16.20;99.90;;;;;;5028625;28;20401;-69
2022/07/05 04:00:28;;;;;;;4.35;2.85;;;16.20;99.90;;;;;;5027988;28;20917;-69
2022/07/05 04:02:53;;;;;;;6.07;2.53;;;16.10;99.90;;;;;;5060915;28;20391;-69
2022/07/05 04:05:19;;;;;;;4.77;2.63;;;16.10;99.90;;;;;;5031335;28;20398;-69
2022/07/05 04:07:50;;;;;;;4.33;2.50;;;16.20;99.90;;;;;;5060577;28;20486;-69
2022/07/05 04:10:16;;;;;;;4.87;2.60;;;16.30;99.90;;;;;;5025556;28;20490;-69
2022/07/05 04:12:42;;;;;;;3.27;2.10;;;16.40;99.90;;;;;;5024226;28;20763;-69
2022/07/05 04:15:08;;;;;;;5.33;2.63;;;16.40;99.90;;;;;;5055300;28;20390;-69
2022/07/05 04:17:34;;;;;;;6.45;3.03;;;16.30;99.90;;;;;;5021713;28;20860;-69
2022/07/05 04:19:59;;;;;;;6.25;2.92;;;16.30;99.90;;;;;;5020717;28;20403;-69
2022/07/05 04:22:25;;;;;;;4.93;2.40;;;16.20;99.90;;;;;;5050787;28;20765;-69
2022/07/05 04:27:35;;;;;;;6.07;3.15;;;16.30;99.90;;;;;;5021225;28;20385;-69
2022/07/05 04:30:00;;;;;;;5.82;3.15;;;16.40;99.90;;;;;;5056508;28;20471;-69
2022/07/05 04:32:26;;;;;;;6.87;2.87;;;16.30;99.90;;;;;;5058286;28;20399;-69
2022/07/05 04:34:51;;;;;;;7.70;3.20;;;16.20;99.90;;;;;;5058515;28;20442;-69
2022/07/05 04:37:17;;;;;;;4.60;2.40;;;16.20;99.90;;;;;;5030164;28;20707;-68
2022/07/05 04:39:42;;;;;;;4.03;2.20;;;16.10;99.90;;;;;;5032654;28;20582;-68
2022/07/05 04:42:08;;;;;;;7.55;2.45;;;16.20;99.90;;;;;;5050003;28;20528;-68
2022/07/05 04:44:33;;;;;;;4.43;2.00;;;16.30;99.90;;;;;;5032419;28;20413;-69
2022/07/05 04:46:59;;;;;;;5.00;2.10;;;16.30;99.90;;;;;;5064663;28;20789;-69
2022/07/05 04:49:25;;;;;;;4.97;2.28;;;16.30;99.90;;;;;;5032897;28;20480;-68
2022/07/05 04:51:50;;;;;;;3.57;2.13;;;16.20;99.90;;;;;;5029161;28;20381;-68
2022/07/05 04:54:16;;;;;;;4.10;2.40;;;16.10;99.90;;;;;;5027218;28;20484;-68
2022/07/05 04:56:41;;;;;;;4.30;2.03;;;16.10;99.90;;;;;;5041708;28;20573;-69
2022/07/05 04:59:07;;;;;;;5.90;2.23;;;16.20;99.90;;;;;;5024869;28;20389;-68
2022/07/05 05:01:32;;;;;;;3.37;2.00;;;16.20;99.90;;;;;;5027332;28;20431;-69
2022/07/05 05:03:58;;;;;;;4.37;2.10;;;16.20;99.90;;;;;;5026925;28;20916;-69
2022/07/05 05:06:23;;;;;;;3.13;2.00;;;16.20;99.90;;;;;;5060513;28;20413;-69
2022/07/05 05:08:49;;;;;;;5.67;2.17;;;16.20;99.90;;;;;;5027517;28;20397;-70
2022/07/05 05:11:14;;;;;;;3.13;1.83;;;16.20;99.90;;;;;;5043465;28;20385;-68
2022/07/05 05:13:45;;;;;;;4.20;2.07;;;16.10;99.90;;;;;;5043203;28;20377;-68
2022/07/05 05:16:10;;;;;;;5.68;2.05;;;16.10;99.90;;;;;;5025558;28;20407;-68
2022/07/05 05:18:36;;;;;;;4.68;2.08;;;16.10;99.90;;;;;;5044205;28;20919;-68
2022/07/05 05:21:02;;;;;;;3.93;2.07;;;16.10;99.90;;;;;;5025568;28;20409;-68
2022/07/05 05:23:27;;;;;;;5.15;2.00;;;16.20;99.90;;;;;;5023821;28;20486;-68
2022/07/05 05:25:53;;;;;;;3.85;2.08;;;16.20;99.90;;;;;;5025910;28;20848;-69
2022/07/05 05:28:18;;;;;;;3.50;1.77;;;16.20;99.90;;;;;;5025104;28;20385;-68
2022/07/05 05:30:44;;;;;;;2.83;1.83;;;16.30;99.90;;;;;;5024209;28;20404;-68
2022/07/05 05:33:10;;;;;;;2.47;1.65;;;16.30;99.90;;;;;;5026342;28;20854;-68
2022/07/05 05:35:35;;;;;;;4.17;1.80;;;16.20;99.90;;;;;;5025306;28;20389;-69
2022/07/05 05:38:01;;;;;;;3.17;1.90;;;16.00;99.90;;;;;;5025790;28;20463;-69
2022/07/05 05:40:27;;;;;;;3.97;1.70;;;16.10;99.90;;;;;;5023202;28;20384;-69
2022/07/05 05:42:54;;;;;;;4.33;2.30;;;16.10;99.90;;;;;;5023247;28;20387;-69
2022/07/05 05:45:20;;;;;;;6.30;1.80;;;16.10;99.90;;;;;;5041288;28;20420;-69
2022/07/05 05:47:48;;;;;;;4.15;1.90;;;16.10;99.90;;;;;;5022995;28;20401;-68
2022/07/05 05:50:14;;;;;;;2.67;1.77;;;16.20;99.90;;;;;;5022913;28;20450;-68
2022/07/05 05:52:39;;;;;;;5.72;1.90;;;16.30;99.90;;;;;;5021763;28;20477;-68
2022/07/05 05:55:05;;;;;;;5.20;1.63;;;16.30;99.90;;;;;;5021776;28;20709;-68
2022/07/05 05:57:33;;;;;;;6.33;2.20;;;16.40;99.90;;;;;;5021149;28;20635;-68
2022/07/05 05:59:58;;;;;;;4.95;1.88;;;16.50;99.90;;;;;;5020194;28;20606;-68
2022/07/05 06:02:24;;;;;;;3.97;1.80;;;16.60;99.90;;;;;;5038527;28;20417;-68
2022/07/05 06:04:49;;;;;;;4.67;1.77;;;16.60;99.90;;;;;;5053499;28;20478;-68
2022/07/05 06:07:15;;;;;;;3.70;1.50;;;16.60;99.90;;;;;;5020167;28;20377;-68
2022/07/05 06:09:40;;;;;;;3.53;1.50;;;16.70;99.90;;;;;;5017803;28;20382;-69
2022/07/05 06:12:06;;;;;;;4.00;1.90;;;16.70;99.90;;;;;;5019453;28;20750;-68
2022/07/05 06:14:32;;;;;;;4.63;1.73;;;16.70;99.90;;;;;;5016475;28;20393;-68
2022/07/05 06:16:57;;;;;;;3.77;1.67;;;16.70;99.90;;;;;;5013859;28;20464;-68
2022/07/05 06:19:23;;;;;;;6.25;1.70;;;16.70;99.90;;;;;;5050250;28;20994;-68
2022/07/05 06:21:48;;;;;;;5.13;2.00;;;16.80;99.90;;;;;;5036077;28;20416;-68
2022/07/05 06:24:14;;;;;;;4.85;1.60;;;16.70;99.90;;;;;;5022014;28;20394;-68
2022/07/05 06:26:39;;;;;;;3.70;1.50;;;16.70;99.90;;;;;;5022349;28;20488;-68
2022/07/05 06:29:05;;;;;;;4.18;1.90;;;16.70;99.90;;;;;;5022023;28;20394;-68
2022/07/05 06:31:33;;;;;;;3.47;1.47;;;16.70;99.90;;;;;;5029410;28;20429;-68
2022/07/05 06:33:58;;;;;;;4.95;1.70;;;16.70;99.90;;;;;;5029398;28;20405;-68
2022/07/05 06:36:24;;;;;;;3.42;1.60;;;16.80;99.90;;;;;;5020989;28;21007;-67
2022/07/05 06:38:49;;;;;;;2.47;1.40;;;16.90;99.90;;;;;;5015979;28;20409;-68
2022/07/05 06:41:14;;;;;;;5.23;1.70;;;16.90;99.90;;;;;;5034328;28;20625;-68
2022/07/05 06:43:40;;;;;;;5.70;1.70;;;17.00;99.90;;;;;;5035578;28;20467;-68
2022/07/05 06:46:05;;;;;;;2.90;1.30;;;16.90;99.90;;;;;;5016837;28;20725;-68
2022/07/05 06:48:31;;;;;;;3.87;1.40;;;17.00;99.90;;;;;;5014830;28;20404;-68
2022/07/05 06:50:56;;;;;;;4.37;1.50;;;17.10;99.90;;;;;;5011741;28;20444;-68
2022/07/05 06:53:22;;;;;;;4.65;1.50;;;17.20;99.90;;;;;;5032079;28;20442;-68
2022/07/05 06:55:48;;;;;;;2.30;1.20;;;17.20;99.90;;;;;;5011884;28;20381;-69
2022/07/05 06:58:13;;;;;;;4.68;1.52;;;17.20;99.90;;;;;;5009781;28;20423;-68
2022/07/05 07:00:40;;;;;;;4.07;1.40;;;17.10;99.90;;;;;;5011597;28;20460;-68
2022/07/05 07:03:05;;;;;;;3.45;1.25;;;17.10;99.90;;;;;;5016258;28;20693;-68
2022/07/05 07:05:31;;;;;;;3.20;1.30;;;17.30;99.90;;;;;;5015986;28;20385;-68
2022/07/05 07:10:40;;;;;;;3.33;1.50;;;17.50;99.90;;;;;;5036888;28;20878;-69
2022/07/05 07:13:06;;;;;;;5.82;1.52;;;17.50;99.90;;;;;;5039085;28;20472;-69
2022/07/05 07:15:33;;;;;;;3.20;1.20;;;17.50;99.90;;;;;;5020272;28;20382;-69
2022/07/05 07:17:59;;;;;;;2.58;1.10;;;17.50;99.90;;;;;;5020861;28;20475;-69
2022/07/05 07:20:25;;;;;;;3.83;1.53;;;17.60;99.90;;;;;;5022633;28;20386;-69
2022/07/05 07:22:50;;;;;;;2.57;1.20;;;17.70;99.90;;;;;;5053775;28;20429;-68
2022/07/05 07:25:17;;;;;;;3.45;1.50;;;18.00;99.90;;;;;;5054438;28;20674;-69
2022/07/05 07:27:49;;;;;;;5.10;1.63;;;18.00;99.90;;;;;;5019971;28;20412;-68
2022/07/05 07:30:17;;;;;;;6.35;1.40;;;18.10;99.90;;;;;;5023594;28;20824;-68
2022/07/05 07:32:44;;;;;;;4.55;1.10;;;18.20;99.90;;;;;;5022381;28;20444;-68
2022/07/05 07:35:10;;;;;;;3.60;1.30;;;18.20;99.90;;;;;;5020831;28;20603;-68
2022/07/05 07:37:35;;;;;;;3.23;1.03;;;18.10;99.90;;;;;;5020170;28;20438;-68
2022/07/05 07:40:03;;;;;;;4.27;1.30;;;18.10;99.90;;;;;;5053179;28;20449;-68
2022/07/05 07:42:29;;;;;;;3.40;1.40;;;18.10;99.90;;;;;;5018087;28;20407;-68
2022/07/05 07:44:54;;;;;;;3.00;1.17;;;18.00;99.90;;;;;;5050544;28;20384;-68
2022/07/05 07:47:20;;;;;;;5.53;1.20;;;17.90;99.90;;;;;;5019048;28;20406;-69
2022/07/05 07:49:45;;;;;;;3.43;1.20;;;17.80;99.90;;;;;;5053012;28;20687;-68
2022/07/05 07:52:11;;;;;;;3.37;1.17;;;17.90;99.90;;;;;;5048354;28;20490;-68
2022/07/05 07:54:36;;;;;;;3.20;1.00;;;18.10;99.90;;;;;;5046007;28;20524;-68
2022/07/05 07:57:04;;;;;;;1.97;1.03;;;18.10;99.90;;;;;;5017553;28;20655;-68
2022/07/05 07:59:30;;;;;;;2.37;1.00;;;18.00;99.90;;;;;;5048187;28;20394;-68
2022/07/05 08:01:56;;;;;;;3.80;1.27;;;18.10;99.90;;;;;;5049474;28;20406;-68
2022/07/05 08:04:22;;;;;;;2.60;1.10;;;18.20;99.90;;;;;;5016818;28;20390;-68
2022/07/05 08:06:47;;;;;;;2.53;0.82;;;18.20;99.90;;;;;;5019468;28;20418;-68
2022/07/05 08:09:13;;;;;;;3.10;1.08;;;18.20;99.90;;;;;;5026768;28;20483;-69
2022/07/05 08:11:39;;;;;;;3.25;0.80;;;18.10;99.90;;;;;;5057620;28;20482;-68
2022/07/05 08:14:05;;;;;;;2.33;0.80;;;18.10;99.90;;;;;;5058346;28;20434;-68
2022/07/05 08:16:31;;;;;;;2.53;0.70;;;18.20;99.90;;;;;;5058522;28;20422;-70
2022/07/05 08:21:41;;;;;;;2.80;0.68;;;18.30;99.90;;;;;;5025782;28;20442;-68
2022/07/05 08:24:13;;;;;;;1.97;0.70;;;18.40;99.90;;;;;;5054805;28;20455;-68
2022/07/05 08:26:39;;;;;;;2.28;0.70;;;18.40;99.90;;;;;;5054221;28;20481;-68
2022/07/05 08:29:08;;;;;;;2.13;0.68;;;18.60;99.90;;;;;;5052675;28;20383;-68
2022/07/05 08:31:37;;;;;;;1.80;0.50;;;18.60;99.90;;;;;;5051246;28;20546;-68
2022/07/05 08:34:02;;;;;;;1.42;0.80;;;18.50;99.90;;;;;;5051262;28;20395;-68
2022/07/05 08:36:28;;;;;;;1.10;0.50;;;18.60;99.90;;;;;;5051237;28;20398;-68
2022/07/05 08:38:54;;;;;;;2.13;0.73;;;18.70;99.90;;;;;;5050349;28;20415;-68
2022/07/05 08:41:21;;;;;;;2.10;0.63;;;18.80;99.90;;;;;;5049164;28;20767;-68
2022/07/05 08:43:48;;;;;;;1.10;0.70;;;18.80;99.90;;;;;;5046790;28;20564;-68
2022/07/05 08:46:15;;;;;;;5.70;0.60;;;18.90;99.90;;;;;;5021684;28;20444;-68
2022/07/05 08:48:43;;;;;;;3.78;0.60;;;18.90;99.90;;;;;;5022644;28;20909;-68
2022/07/05 08:51:23;;;;;;;2.25;0.77;;;18.80;99.90;;;;;;5054841;28;20395;-69
2022/07/05 08:53:51;;;;;;;1.50;0.80;;;19.00;99.90;;;;;;5056962;28;20827;-68
2022/07/05 08:56:18;;;;;;;1.53;0.70;;;19.00;99.90;;;;;;5053766;28;20608;-68
2022/07/05 08:58:44;;;;;;;2.70;0.50;;;18.90;99.90;;;;;;5050624;28;20542;-69
2022/07/05 09:01:11;;;;;;;2.10;0.60;;;18.90;99.90;;;;;;5018872;28;20822;-68
2022/07/05 09:03:38;;;;;;;2.30;0.63;;;19.00;99.90;;;;;;5050085;28;20805;-68
2022/07/05 09:06:08;;;;;;;2.30;0.75;;;19.10;99.90;;;;;;5017920;28;20835;-68
2022/07/05 09:08:39;;;;;;;1.50;0.70;;;19.10;99.90;;;;;;5050433;28;20950;-68
2022/07/05 09:11:12;;;;;;;1.83;0.60;;;19.10;99.90;;;;;;5016289;28;20478;-68
2022/07/05 09:13:40;;;;;;;1.88;0.65;;;19.20;99.90;;;;;;5050597;28;20395;-68
2022/07/05 09:16:06;;;;;;;5.47;0.80;;;19.10;99.90;;;;;;5048035;28;20387;-68
2022/07/05 09:18:54;;;;;;;1.15;0.65;;;19.10;99.90;;;;;;5047227;28;20733;-68
2022/07/05 09:21:27;;;;;;;2.95;0.70;;;19.10;99.90;;;;;;5045926;28;20647;-68
2022/07/05 09:23:58;;;;;;;1.10;0.60;;;19.00;99.90;;;;;;5012770;28;20567;-69
2022/07/05 09:26:39;;;;;;;2.40;0.80;;;19.10;99.90;;;;;;5055910;28;20380;-69
2022/07/05 09:29:07;;;;;;;4.05;0.90;;;19.20;99.90;;;;;;5026788;28;20422;-70
2022/07/05 09:31:35;;;;;;;2.95;0.98;;;19.20;99.90;;;;;;5056268;28;20386;-70
2022/07/05 09:34:18;;;;;;;4.20;0.70;;;19.20;99.90;;;;;;5016656;28;20562;-70
2022/07/05 09:36:53;;;;;;;2.33;0.70;;;19.20;99.90;;;;;;5016280;28;20527;-70
2022/07/05 09:39:37;;;;;;;2.15;0.70;;;19.30;99.90;;;;;;5015219;28;20429;-70
2022/07/05 09:42:09;;;;;;;2.03;0.70;;;19.30;99.90;;;;;;5016145;28;20411;-70
2022/07/05 09:44:45;;;;;;;2.22;0.50;;;19.40;99.90;;;;;;5017581;28;20615;-70
2022/07/05 09:47:13;;;;;;;1.95;0.52;;;19.30;99.90;;;;;;5050521;28;20876;-68
2022/07/05 09:49:42;;;;;;;1.80;0.65;;;19.20;99.90;;;;;;5020390;28;20387;-69
2022/07/05 09:52:08;;;;;;;2.03;0.70;;;19.30;99.90;;;;;;5055724;28;20528;-69
2022/07/05 09:54:33;;;;;;;0.80;0.50;;;19.40;99.90;;;;;;5055020;28;20741;-69
2022/07/05 09:56:59;;;;;;;3.13;0.60;;;19.40;99.90;;;;;;5019045;28;20606;-69
2022/07/05 09:59:24;;;;;;;1.17;0.70;;;19.30;99.90;;;;;;5051632;28;20383;-70
2022/07/05 10:01:50;;;;;;;1.80;0.70;;;19.30;99.90;;;;;;5050665;28;20526;-69
2022/07/05 10:04:16;;;;;;;1.83;0.52;;;19.40;99.90;;;;;;5020145;28;21058;-69
2022/07/05 10:06:42;;;;;;;2.28;0.60;;;19.50;99.90;;;;;;5054683;28;21113;-70
2022/07/05 10:09:09;;;;;;;1.55;0.52;;;19.60;99.90;;;;;;5059093;28;20403;-69
2022/07/05 10:11:40;;;;;;;1.60;0.40;;;19.60;99.90;;;;;;5059728;28;20394;-69
2022/07/05 10:14:20;;;;;;;1.13;0.53;;;19.60;99.90;;;;;;5027367;28;20474;-69
2022/07/05 10:16:52;;;;;;;1.50;0.47;;;19.60;99.90;;;;;;5027826;28;20390;-69
2022/07/05 10:19:20;;;;;;;2.42;0.60;;;19.80;99.90;;;;;;5060328;28;20434;-69
2022/07/05 10:21:46;;;;;;;1.47;0.60;;;19.90;99.90;;;;;;5060058;28;20721;-69
2022/07/05 10:24:13;;;;;;;1.25;0.60;;;19.80;99.90;;;;;;5059134;28;20387;-69
2022/07/05 10:26:40;;;;;;;3.97;0.80;;;19.90;99.90;;;;;;5057447;28;20415;-69
2022/07/05 10:29:07;;;;;;;2.17;0.63;;;19.90;99.90;;;;;;5021383;28;20390;-69
2022/07/05 10:31:33;;;;;;;2.22;0.60;;;20.00;99.90;;;;;;5056236;28;20395;-69
2022/07/05 10:34:07;;;;;;;1.88;0.70;;;20.00;99.90;;;;;;5057276;28;20402;-69
2022/07/05 10:36:34;;;;;;;0.80;0.47;;;19.90;99.90;;;;;;5056755;28;20401;-67
2022/07/05 10:39:01;;;;;;;1.05;0.40;;;20.00;99.90;;;;;;5043360;28;20459;-68
2022/07/05 10:41:28;;;;;;;1.42;0.52;;;20.10;99.90;;;;;;5045478;28;20420;-70
2022/07/05 10:43:55;;;;;;;4.38;0.75;;;20.30;99.90;;;;;;5028710;28;20792;-69
2022/07/05 10:46:33;;;;;;;1.45;0.50;;;20.20;99.90;;;;;;5030902;28;20381;-68
2022/07/05 10:49:10;;;;;;;3.50;0.50;;;20.20;99.90;;;;;;5049558;28;20491;-68
2022/07/05 10:51:36;;;;;;;2.55;0.57;;;20.20;99.90;;;;;;5030352;28;20748;-68
2022/07/05 10:54:02;;;;;;;2.00;0.70;;;20.20;99.90;;;;;;5029427;28;20389;-68
2022/07/05 10:56:28;;;;;;;1.70;0.50;;;20.10;99.90;;;;;;5047542;28;20978;-68
2022/07/05 10:59:06;;;;;;;1.70;0.70;;;20.20;99.90;;;;;;5030012;28;20397;-68
2022/07/05 11:01:34;;;;;;;1.70;0.70;;;20.20;99.90;;;;;;5044068;28;20413;-68
2022/07/05 11:04:02;;;;;;;2.88;0.65;;;20.30;99.90;;;;;;5041689;28;20397;-68
2022/07/05 11:06:49;;;;;;;1.80;0.70;;;20.40;99.90;;;;;;5057676;28;21050;-69
2022/07/05 11:09:17;;;;;;;1.65;0.75;;;20.30;99.90;;;;;;5025203;28;20381;-69
2022/07/05 11:12:04;;;;;;;1.30;0.57;;;20.30;99.90;;;;;;5023968;28;20420;-68
2022/07/05 11:14:31;;;;;;;1.48;0.60;;;20.20;99.90;;;;;;5039821;28;20386;-68
2022/07/05 11:17:10;;;;;;;3.38;0.80;;;20.30;99.90;;;;;;5053760;28;20419;-68
2022/07/05 11:20:04;;;;;;;1.53;0.70;;;20.20;99.90;;;;;;5055465;28;20392;-68
2022/07/05 11:22:30;;;;;;;0.90;0.60;;;20.30;99.90;;;;;;4988106;28;20401;-68
2022/07/05 11:24:57;;;;;;;0.90;0.63;;;20.40;99.90;;;;;;5035506;28;20572;-68
2022/07/05 11:27:23;;;;;;;3.40;0.70;;;20.50;99.90;;;;;;5034394;28;20393;-68
2022/07/05 11:29:53;;;;;;;0.68;0.40;;;20.60;99.90;;;;;;5016395;28;20458;-67
2022/07/05 11:32:21;;;;;;;3.30;0.60;;;20.70;99.90;;;;;;5016983;28;20429;-68
2022/07/05 11:34:51;;;;;;;2.33;0.70;;;20.60;99.90;;;;;;5016634;28;21046;-68
2022/07/05 11:37:18;;;;;;;1.70;0.70;;;20.60;99.90;;;;;;5017687;28;20443;-68
2022/07/05 11:39:45;;;;;;;1.08;0.57;;;20.60;99.90;;;;;;5054213;28;20385;-68
2022/07/05 11:42:19;;;;;;;1.80;0.60;;;20.70;99.90;;;;;;5021709;28;20968;-68
2022/07/05 11:44:49;;;;;;;1.70;0.50;;;20.80;99.90;;;;;;5038207;28;20377;-68
2022/07/05 11:47:16;;;;;;;0.93;0.60;;;21.00;99.90;;;;;;5024109;28;21087;-69
2022/07/05 11:49:56;;;;;;;0.98;0.70;;;21.40;99.90;;;;;;5027300;28;20476;-70
2022/07/05 11:52:26;;;;;;;1.08;0.50;;;21.50;99.90;;;;;;5031321;28;20413;-70
2022/07/05 11:54:52;;;;;;;2.22;0.60;;;21.50;99.90;;;;;;5028355;28;20381;-68
2022/07/05 11:57:19;;;;;;;1.05;0.50;;;21.40;99.90;;;;;;5045548;28;20457;-69
2022/07/05 11:59:45;;;;;;;1.38;0.70;;;21.50;99.90;;;;;;5043133;28;20617;-70
2022/07/05 12:02:11;;;;;;;1.02;0.55;;;21.50;99.90;;;;;;5028236;28;20696;-69
2022/07/05 12:04:36;;;;;;;4.63;0.70;;;21.40;99.90;;;;;;5024578;28;20614;-70
2022/07/05 12:07:03;;;;;;;2.27;0.60;;;21.30;99.90;;;;;;5022118;28;20386;-70
2022/07/05 12:12:42;;;;;;;2.67;0.60;;;21.20;99.90;;;;;;5024428;28;20448;-70
2022/07/05 12:15:19;;;;;;;1.45;0.50;;;20.90;99.90;;;;;;5039909;28;20396;-70
2022/07/05 12:17:51;;;;;;;1.60;0.50;;;20.90;99.90;;;;;;5020887;28;21045;-69
2022/07/05 12:20:24;;;;;;;2.97;0.90;;;21.10;99.90;;;;;;5022102;28;20389;-70
2022/07/05 12:22:50;;;;;;;2.60;0.60;;;21.50;99.90;;;;;;5022164;28;20827;-69
2022/07/05 12:25:23;;;;;;;2.30;0.60;;;21.80;99.90;;;;;;5021783;28;21087;-69
2022/07/05 12:27:50;;;;;;;2.70;0.50;;;21.90;99.90;;;;;;5020333;28;20767;-69
2022/07/05 12:30:17;;;;;;;2.67;0.60;;;22.00;99.90;;;;;;5019997;28;20389;-70
2022/07/05 12:33:07;;;;;;;1.52;0.60;;;22.20;99.90;;;;;;5017887;28;20811;-70
2022/07/05 12:35:42;;;;;;;1.60;0.50;;;22.10;99.90;;;;;;5024118;28;20416;-70
2022/07/05 12:38:20;;;;;;;2.47;0.68;;;22.00;99.90;;;;;;5016468;28;20614;-69
2022/07/05 12:40:57;;;;;;;2.17;0.80;;;21.90;99.90;;;;;;5040792;28;20788;-69
2022/07/05 12:43:23;;;;;;;3.28;1.10;;;21.90;99.90;;;;;;5026955;28;20765;-69
2022/07/05 12:46:04;;;;;;;1.60;0.57;;;21.80;99.90;;;;;;5042673;28;21059;-69
2022/07/05 12:48:37;;;;;;;3.60;0.93;;;21.30;99.90;;;;;;5040055;28;20505;-68
2022/07/05 12:51:03;;;;;;;1.60;0.70;;;21.60;99.90;;;;;;5022187;28;20864;-68
2022/07/05 12:59:03;;;;;;;1.55;0.70;;;21.70;99.90;;;;;;5041001;28;20870;-68
2022/07/05 13:01:39;;;;;;;2.05;0.77;;;21.70;99.90;;;;;;5028378;28;20409;-68
2022/07/05 13:04:15;;;;;;;2.28;0.60;;;21.90;99.90;;;;;;5025172;28;20484;-68
2022/07/05 13:07:01;;;;;;;1.90;0.70;;;22.10;99.90;;;;;;5025963;28;20414;-68